sensor_id;sensor_type;location;lat;lon;timestamp;P1;durP1;ratioP1;P2;durP2;ratioP2
38937;SDS011;24727;51.974;20.868;2023-05-28T00:00:31;14.05;;;7.05;;
38937;SDS011;24727;51.974;20.868;2023-05-28T00:02:56;9.77;;;5.50;;
38937;SDS011;24727;51.974;20.868;2023-05-28T00:05:22;14.27;;;6.68;;
38937;SDS011;24727;51.974;20.868;2023-05-28T00:07:49;12.40;;;5.55;;
38937;SDS011;24727;51.974;20.868;2023-05-28T00:10:16;10.18;;;6.00;;
38937;SDS011;24727;51.974;20.868;2023-05-28T00:12:42;10.13;;;6.30;;
38937;SDS011;24727;51.974;20.868;2023-05-28T00:15:09;10.48;;;6.18;;
38937;SDS011;24727;51.974;20.868;2023-05-28T00:17:35;11.40;;;5.65;;
38937;SDS011;24727;51.974;20.868;2023-05-28T00:20:01;9.60;;;5.60;;
38937;SDS011;24727;51.974;20.868;2023-05-28T00:22:29;10.05;;;5.40;;
38937;SDS011;24727;51.974;20.868;2023-05-28T00:24:56;11.40;;;6.35;;
38937;SDS011;24727;51.974;20.868;2023-05-28T00:27:22;10.30;;;5.25;;
38937;SDS011;24727;51.974;20.868;2023-05-28T00:29:48;9.27;;;6.20;;
38937;SDS011;24727;51.974;20.868;2023-05-28T00:32:14;13.35;;;5.85;;
38937;SDS011;24727;51.974;20.868;2023-05-28T00:34:40;9.77;;;5.45;;
38937;SDS011;24727;51.974;20.868;2023-05-28T00:37:08;11.70;;;6.32;;
38937;SDS011;24727;51.974;20.868;2023-05-28T00:39:33;8.57;;;5.00;;
38937;SDS011;24727;51.974;20.868;2023-05-28T00:42:05;10.50;;;5.40;;
38937;SDS011;24727;51.974;20.868;2023-05-28T00:44:32;12.88;;;6.22;;
38937;SDS011;24727;51.974;20.868;2023-05-28T00:47:06;10.13;;;6.20;;
38937;SDS011;24727;51.974;20.868;2023-05-28T00:49:32;9.27;;;5.60;;
38937;SDS011;24727;51.974;20.868;2023-05-28T00:51:59;9.13;;;5.40;;
38937;SDS011;24727;51.974;20.868;2023-05-28T00:54:27;10.05;;;5.82;;
38937;SDS011;24727;51.974;20.868;2023-05-28T00:56:55;6.93;;;4.85;;
38937;SDS011;24727;51.974;20.868;2023-05-28T00:59:25;9.82;;;5.35;;
38937;SDS011;24727;51.974;20.868;2023-05-28T01:01:52;10.77;;;5.20;;
38937;SDS011;24727;51.974;20.868;2023-05-28T01:04:18;10.07;;;5.63;;
38937;SDS011;24727;51.974;20.868;2023-05-28T01:06:47;10.70;;;5.40;;
38937;SDS011;24727;51.974;20.868;2023-05-28T01:09:14;11.75;;;5.03;;
38937;SDS011;24727;51.974;20.868;2023-05-28T01:11:42;8.32;;;5.32;;
38937;SDS011;24727;51.974;20.868;2023-05-28T01:14:09;10.80;;;5.90;;
38937;SDS011;24727;51.974;20.868;2023-05-28T01:16:37;11.65;;;5.57;;
38937;SDS011;24727;51.974;20.868;2023-05-28T01:19:03;12.30;;;5.65;;
38937;SDS011;24727;51.974;20.868;2023-05-28T01:21:34;9.43;;;5.43;;
38937;SDS011;24727;51.974;20.868;2023-05-28T01:24:02;8.73;;;5.32;;
38937;SDS011;24727;51.974;20.868;2023-05-28T01:26:29;10.50;;;5.32;;
38937;SDS011;24727;51.974;20.868;2023-05-28T01:28:56;8.43;;;4.65;;
38937;SDS011;24727;51.974;20.868;2023-05-28T01:31:23;9.10;;;4.65;;
38937;SDS011;24727;51.974;20.868;2023-05-28T01:33:49;8.98;;;5.53;;
38937;SDS011;24727;51.974;20.868;2023-05-28T01:36:25;7.70;;;4.25;;
38937;SDS011;24727;51.974;20.868;2023-05-28T01:38:55;9.07;;;4.80;;
38937;SDS011;24727;51.974;20.868;2023-05-28T01:41:26;11.05;;;5.03;;
38937;SDS011;24727;51.974;20.868;2023-05-28T01:43:54;9.80;;;5.40;;
38937;SDS011;24727;51.974;20.868;2023-05-28T01:46:22;10.13;;;4.75;;
38937;SDS011;24727;51.974;20.868;2023-05-28T01:48:48;8.63;;;5.10;;
38937;SDS011;24727;51.974;20.868;2023-05-28T01:51:25;10.68;;;4.68;;
38937;SDS011;24727;51.974;20.868;2023-05-28T01:53:59;6.82;;;4.55;;
38937;SDS011;24727;51.974;20.868;2023-05-28T01:56:25;9.70;;;5.18;;
38937;SDS011;24727;51.974;20.868;2023-05-28T01:58:51;9.20;;;4.45;;
38937;SDS011;24727;51.974;20.868;2023-05-28T02:01:21;7.63;;;4.60;;
38937;SDS011;24727;51.974;20.868;2023-05-28T02:03:59;11.00;;;4.63;;
38937;SDS011;24727;51.974;20.868;2023-05-28T02:06:26;9.95;;;4.75;;
38937;SDS011;24727;51.974;20.868;2023-05-28T02:08:54;7.38;;;3.97;;
38937;SDS011;24727;51.974;20.868;2023-05-28T02:11:21;6.55;;;4.60;;
38937;SDS011;24727;51.974;20.868;2023-05-28T02:13:50;8.48;;;4.35;;
38937;SDS011;24727;51.974;20.868;2023-05-28T02:16:19;6.85;;;4.38;;
38937;SDS011;24727;51.974;20.868;2023-05-28T02:18:46;15.25;;;4.72;;
38937;SDS011;24727;51.974;20.868;2023-05-28T02:21:16;9.95;;;4.63;;
38937;SDS011;24727;51.974;20.868;2023-05-28T02:23:46;8.95;;;4.78;;
38937;SDS011;24727;51.974;20.868;2023-05-28T02:26:14;8.48;;;5.30;;
38937;SDS011;24727;51.974;20.868;2023-05-28T02:28:41;14.15;;;8.32;;
38937;SDS011;24727;51.974;20.868;2023-05-28T02:31:09;11.50;;;8.45;;
38937;SDS011;24727;51.974;20.868;2023-05-28T02:33:36;13.05;;;8.18;;
38937;SDS011;24727;51.974;20.868;2023-05-28T02:36:03;9.25;;;6.50;;
38937;SDS011;24727;51.974;20.868;2023-05-28T02:38:32;9.93;;;6.20;;
38937;SDS011;24727;51.974;20.868;2023-05-28T02:40:59;14.55;;;5.63;;
38937;SDS011;24727;51.974;20.868;2023-05-28T02:43:26;8.23;;;5.00;;
38937;SDS011;24727;51.974;20.868;2023-05-28T02:45:53;8.50;;;4.70;;
38937;SDS011;24727;51.974;20.868;2023-05-28T02:48:18;8.68;;;4.28;;
38937;SDS011;24727;51.974;20.868;2023-05-28T02:50:45;10.25;;;4.50;;
38937;SDS011;24727;51.974;20.868;2023-05-28T02:53:12;10.75;;;4.75;;
38937;SDS011;24727;51.974;20.868;2023-05-28T02:55:38;7.80;;;4.55;;
38937;SDS011;24727;51.974;20.868;2023-05-28T02:58:04;6.97;;;4.22;;
38937;SDS011;24727;51.974;20.868;2023-05-28T03:00:36;7.68;;;4.53;;
38937;SDS011;24727;51.974;20.868;2023-05-28T03:03:02;8.75;;;4.07;;
38937;SDS011;24727;51.974;20.868;2023-05-28T03:05:29;8.68;;;4.47;;
38937;SDS011;24727;51.974;20.868;2023-05-28T03:08:02;12.70;;;5.80;;
38937;SDS011;24727;51.974;20.868;2023-05-28T03:12:55;8.57;;;4.00;;
38937;SDS011;24727;51.974;20.868;2023-05-28T03:15:21;8.00;;;4.43;;
38937;SDS011;24727;51.974;20.868;2023-05-28T03:17:49;9.07;;;4.05;;
38937;SDS011;24727;51.974;20.868;2023-05-28T03:20:15;6.50;;;4.18;;
38937;SDS011;24727;51.974;20.868;2023-05-28T03:22:41;9.07;;;4.05;;
38937;SDS011;24727;51.974;20.868;2023-05-28T03:25:08;6.82;;;3.95;;
38937;SDS011;24727;51.974;20.868;2023-05-28T03:27:35;11.20;;;4.15;;
38937;SDS011;24727;51.974;20.868;2023-05-28T03:32:34;8.00;;;4.55;;
38937;SDS011;24727;51.974;20.868;2023-05-28T03:37:30;8.27;;;4.90;;
38937;SDS011;24727;51.974;20.868;2023-05-28T03:39:56;10.15;;;4.38;;
38937;SDS011;24727;51.974;20.868;2023-05-28T03:42:29;9.50;;;4.28;;
38937;SDS011;24727;51.974;20.868;2023-05-28T03:44:56;7.25;;;4.07;;
38937;SDS011;24727;51.974;20.868;2023-05-28T03:47:22;10.00;;;4.40;;
38937;SDS011;24727;51.974;20.868;2023-05-28T03:49:50;9.88;;;4.80;;
38937;SDS011;24727;51.974;20.868;2023-05-28T03:52:15;13.05;;;4.50;;
38937;SDS011;24727;51.974;20.868;2023-05-28T03:54:42;8.88;;;4.60;;
38937;SDS011;24727;51.974;20.868;2023-05-28T03:57:16;8.98;;;4.47;;
38937;SDS011;24727;51.974;20.868;2023-05-28T03:59:43;8.32;;;4.00;;
38937;SDS011;24727;51.974;20.868;2023-05-28T04:02:09;8.43;;;3.90;;
38937;SDS011;24727;51.974;20.868;2023-05-28T04:04:36;7.45;;;3.95;;
38937;SDS011;24727;51.974;20.868;2023-05-28T04:07:04;12.35;;;4.63;;
38937;SDS011;24727;51.974;20.868;2023-05-28T04:09:31;9.80;;;4.25;;
38937;SDS011;24727;51.974;20.868;2023-05-28T04:11:57;9.98;;;4.03;;
38937;SDS011;24727;51.974;20.868;2023-05-28T04:14:22;6.25;;;3.80;;
38937;SDS011;24727;51.974;20.868;2023-05-28T04:16:49;13.70;;;4.63;;
38937;SDS011;24727;51.974;20.868;2023-05-28T04:19:17;8.88;;;3.78;;
38937;SDS011;24727;51.974;20.868;2023-05-28T04:21:43;6.38;;;4.00;;
38937;SDS011;24727;51.974;20.868;2023-05-28T04:24:10;7.78;;;4.30;;
38937;SDS011;24727;51.974;20.868;2023-05-28T04:26:36;6.75;;;4.07;;
38937;SDS011;24727;51.974;20.868;2023-05-28T04:29:02;5.70;;;3.60;;
38937;SDS011;24727;51.974;20.868;2023-05-28T04:31:36;5.65;;;3.35;;
38937;SDS011;24727;51.974;20.868;2023-05-28T04:34:05;8.68;;;3.80;;
38937;SDS011;24727;51.974;20.868;2023-05-28T04:36:33;6.97;;;3.25;;
38937;SDS011;24727;51.974;20.868;2023-05-28T04:39:02;4.60;;;3.10;;
38937;SDS011;24727;51.974;20.868;2023-05-28T04:41:32;7.35;;;3.40;;
38937;SDS011;24727;51.974;20.868;2023-05-28T04:43:59;13.35;;;3.13;;
38937;SDS011;24727;51.974;20.868;2023-05-28T04:46:26;9.50;;;2.83;;
38937;SDS011;24727;51.974;20.868;2023-05-28T04:48:54;6.38;;;2.95;;
38937;SDS011;24727;51.974;20.868;2023-05-28T04:51:20;5.03;;;2.72;;
38937;SDS011;24727;51.974;20.868;2023-05-28T04:53:47;4.65;;;2.30;;
38937;SDS011;24727;51.974;20.868;2023-05-28T04:56:13;5.70;;;2.70;;
38937;SDS011;24727;51.974;20.868;2023-05-28T04:58:40;9.40;;;2.30;;
38937;SDS011;24727;51.974;20.868;2023-05-28T05:01:07;6.30;;;2.25;;
38937;SDS011;24727;51.974;20.868;2023-05-28T05:03:35;4.93;;;2.38;;
38937;SDS011;24727;51.974;20.868;2023-05-28T05:06:01;6.35;;;2.20;;
38937;SDS011;24727;51.974;20.868;2023-05-28T05:08:29;3.70;;;2.30;;
38937;SDS011;24727;51.974;20.868;2023-05-28T05:10:56;3.40;;;1.70;;
38937;SDS011;24727;51.974;20.868;2023-05-28T05:13:22;2.53;;;1.67;;
38937;SDS011;24727;51.974;20.868;2023-05-28T05:15:49;3.90;;;1.98;;
38937;SDS011;24727;51.974;20.868;2023-05-28T05:18:15;3.50;;;1.92;;
38937;SDS011;24727;51.974;20.868;2023-05-28T05:20:41;4.13;;;2.00;;
38937;SDS011;24727;51.974;20.868;2023-05-28T05:23:07;2.08;;;1.50;;
38937;SDS011;24727;51.974;20.868;2023-05-28T05:25:34;3.65;;;1.60;;
38937;SDS011;24727;51.974;20.868;2023-05-28T05:28:00;5.45;;;1.98;;
38937;SDS011;24727;51.974;20.868;2023-05-28T05:30:26;9.52;;;1.60;;
38937;SDS011;24727;51.974;20.868;2023-05-28T05:32:52;2.75;;;1.77;;
38937;SDS011;24727;51.974;20.868;2023-05-28T05:35:18;5.53;;;1.65;;
38937;SDS011;24727;51.974;20.868;2023-05-28T05:37:45;8.13;;;1.70;;
38937;SDS011;24727;51.974;20.868;2023-05-28T05:40:11;3.28;;;1.33;;
38937;SDS011;24727;51.974;20.868;2023-05-28T05:42:38;5.43;;;1.50;;
38937;SDS011;24727;51.974;20.868;2023-05-28T05:45:06;3.67;;;1.70;;
38937;SDS011;24727;51.974;20.868;2023-05-28T05:47:32;2.80;;;1.33;;
38937;SDS011;24727;51.974;20.868;2023-05-28T05:49:58;3.47;;;1.10;;
38937;SDS011;24727;51.974;20.868;2023-05-28T05:52:25;4.35;;;1.45;;
38937;SDS011;24727;51.974;20.868;2023-05-28T05:54:53;3.45;;;1.42;;
38937;SDS011;24727;51.974;20.868;2023-05-28T05:57:21;2.63;;;1.15;;
38937;SDS011;24727;51.974;20.868;2023-05-28T05:59:47;2.78;;;1.25;;
38937;SDS011;24727;51.974;20.868;2023-05-28T06:04:50;5.35;;;1.20;;
38937;SDS011;24727;51.974;20.868;2023-05-28T06:07:18;7.05;;;1.60;;
38937;SDS011;24727;51.974;20.868;2023-05-28T06:09:44;4.40;;;1.48;;
38937;SDS011;24727;51.974;20.868;2023-05-28T06:12:11;2.65;;;1.10;;
38937;SDS011;24727;51.974;20.868;2023-05-28T06:14:39;2.50;;;1.15;;
38937;SDS011;24727;51.974;20.868;2023-05-28T06:17:08;3.60;;;1.17;;
38937;SDS011;24727;51.974;20.868;2023-05-28T06:19:34;3.38;;;1.50;;
38937;SDS011;24727;51.974;20.868;2023-05-28T06:22:01;3.80;;;1.40;;
38937;SDS011;24727;51.974;20.868;2023-05-28T06:24:27;5.03;;;1.38;;
38937;SDS011;24727;51.974;20.868;2023-05-28T06:26:54;4.43;;;1.40;;
38937;SDS011;24727;51.974;20.868;2023-05-28T06:29:20;2.92;;;1.35;;
38937;SDS011;24727;51.974;20.868;2023-05-28T06:31:46;4.43;;;1.05;;
38937;SDS011;24727;51.974;20.868;2023-05-28T06:34:12;2.88;;;1.45;;
38937;SDS011;24727;51.974;20.868;2023-05-28T06:36:40;7.35;;;1.35;;
38937;SDS011;24727;51.974;20.868;2023-05-28T06:39:07;6.57;;;1.20;;
38937;SDS011;24727;51.974;20.868;2023-05-28T06:41:33;3.45;;;1.30;;
38937;SDS011;24727;51.974;20.868;2023-05-28T06:44:00;1.13;;;1.00;;
38937;SDS011;24727;51.974;20.868;2023-05-28T06:46:26;5.15;;;1.30;;
38937;SDS011;24727;51.974;20.868;2023-05-28T06:48:53;2.03;;;1.10;;
38937;SDS011;24727;51.974;20.868;2023-05-28T06:51:22;3.25;;;1.00;;
38937;SDS011;24727;51.974;20.868;2023-05-28T06:53:49;4.47;;;1.35;;
38937;SDS011;24727;51.974;20.868;2023-05-28T06:56:16;9.05;;;1.63;;
38937;SDS011;24727;51.974;20.868;2023-05-28T06:58:42;3.30;;;1.20;;
38937;SDS011;24727;51.974;20.868;2023-05-28T07:01:10;3.72;;;1.20;;
38937;SDS011;24727;51.974;20.868;2023-05-28T07:03:35;4.70;;;1.27;;
38937;SDS011;24727;51.974;20.868;2023-05-28T07:06:02;3.50;;;1.10;;
38937;SDS011;24727;51.974;20.868;2023-05-28T07:08:29;2.25;;;0.70;;
38937;SDS011;24727;51.974;20.868;2023-05-28T07:10:57;6.55;;;0.85;;
38937;SDS011;24727;51.974;20.868;2023-05-28T07:13:23;2.33;;;0.70;;
38937;SDS011;24727;51.974;20.868;2023-05-28T07:15:49;1.75;;;0.80;;
38937;SDS011;24727;51.974;20.868;2023-05-28T07:18:17;3.03;;;0.70;;
38937;SDS011;24727;51.974;20.868;2023-05-28T07:20:50;2.28;;;0.77;;
38937;SDS011;24727;51.974;20.868;2023-05-28T07:23:18;2.15;;;0.80;;
38937;SDS011;24727;51.974;20.868;2023-05-28T07:25:45;6.22;;;0.70;;
38937;SDS011;24727;51.974;20.868;2023-05-28T07:28:12;3.35;;;0.80;;
38937;SDS011;24727;51.974;20.868;2023-05-28T07:30:40;1.17;;;0.50;;
38937;SDS011;24727;51.974;20.868;2023-05-28T07:33:07;2.63;;;0.68;;
38937;SDS011;24727;51.974;20.868;2023-05-28T07:35:33;2.33;;;0.80;;
38937;SDS011;24727;51.974;20.868;2023-05-28T07:38:03;3.60;;;0.93;;
38937;SDS011;24727;51.974;20.868;2023-05-28T07:40:29;3.47;;;1.10;;
38937;SDS011;24727;51.974;20.868;2023-05-28T07:42:56;2.78;;;0.52;;
38937;SDS011;24727;51.974;20.868;2023-05-28T07:45:22;6.57;;;1.10;;
38937;SDS011;24727;51.974;20.868;2023-05-28T07:47:48;4.93;;;0.47;;
38937;SDS011;24727;51.974;20.868;2023-05-28T07:50:14;5.07;;;0.60;;
38937;SDS011;24727;51.974;20.868;2023-05-28T07:52:39;1.25;;;0.50;;
38937;SDS011;24727;51.974;20.868;2023-05-28T07:55:06;4.57;;;0.70;;
38937;SDS011;24727;51.974;20.868;2023-05-28T07:57:32;3.30;;;0.57;;
38937;SDS011;24727;51.974;20.868;2023-05-28T07:59:59;2.38;;;0.90;;
38937;SDS011;24727;51.974;20.868;2023-05-28T08:02:26;2.22;;;0.50;;
38937;SDS011;24727;51.974;20.868;2023-05-28T08:04:52;2.85;;;0.70;;
38937;SDS011;24727;51.974;20.868;2023-05-28T08:07:20;2.05;;;0.50;;
38937;SDS011;24727;51.974;20.868;2023-05-28T08:09:45;1.77;;;0.60;;
38937;SDS011;24727;51.974;20.868;2023-05-28T08:12:13;2.83;;;0.35;;
38937;SDS011;24727;51.974;20.868;2023-05-28T08:14:40;5.03;;;0.77;;
38937;SDS011;24727;51.974;20.868;2023-05-28T08:17:07;1.75;;;0.40;;
38937;SDS011;24727;51.974;20.868;2023-05-28T08:19:34;1.98;;;0.30;;
38937;SDS011;24727;51.974;20.868;2023-05-28T08:22:00;0.60;;;0.50;;
38937;SDS011;24727;51.974;20.868;2023-05-28T08:24:27;5.38;;;0.63;;
38937;SDS011;24727;51.974;20.868;2023-05-28T08:27:00;0.63;;;0.40;;
38937;SDS011;24727;51.974;20.868;2023-05-28T08:29:26;0.95;;;0.40;;
38937;SDS011;24727;51.974;20.868;2023-05-28T08:31:52;4.20;;;0.70;;
38937;SDS011;24727;51.974;20.868;2023-05-28T08:34:18;2.55;;;0.50;;
38937;SDS011;24727;51.974;20.868;2023-05-28T08:36:45;2.65;;;0.68;;
38937;SDS011;24727;51.974;20.868;2023-05-28T08:39:11;8.13;;;0.65;;
38937;SDS011;24727;51.974;20.868;2023-05-28T08:41:38;1.73;;;0.50;;
38937;SDS011;24727;51.974;20.868;2023-05-28T08:44:05;1.15;;;0.52;;
38937;SDS011;24727;51.974;20.868;2023-05-28T08:46:31;1.48;;;0.60;;
38937;SDS011;24727;51.974;20.868;2023-05-28T08:48:57;1.10;;;0.60;;
38937;SDS011;24727;51.974;20.868;2023-05-28T08:51:24;2.42;;;0.60;;
38937;SDS011;24727;51.974;20.868;2023-05-28T08:53:53;4.55;;;0.80;;
38937;SDS011;24727;51.974;20.868;2023-05-28T08:56:21;5.00;;;0.60;;
38937;SDS011;24727;51.974;20.868;2023-05-28T08:58:54;3.75;;;0.85;;
38937;SDS011;24727;51.974;20.868;2023-05-28T09:01:20;3.40;;;0.75;;
38937;SDS011;24727;51.974;20.868;2023-05-28T09:03:47;2.95;;;0.68;;
38937;SDS011;24727;51.974;20.868;2023-05-28T09:06:13;1.20;;;0.68;;
38937;SDS011;24727;51.974;20.868;2023-05-28T09:08:43;3.78;;;0.77;;
38937;SDS011;24727;51.974;20.868;2023-05-28T09:11:11;4.43;;;1.20;;
38937;SDS011;24727;51.974;20.868;2023-05-28T09:13:42;3.17;;;0.60;;
38937;SDS011;24727;51.974;20.868;2023-05-28T09:16:09;1.50;;;0.50;;
38937;SDS011;24727;51.974;20.868;2023-05-28T09:18:36;3.75;;;0.60;;
38937;SDS011;24727;51.974;20.868;2023-05-28T09:21:09;1.55;;;0.60;;
38937;SDS011;24727;51.974;20.868;2023-05-28T09:23:39;0.80;;;0.75;;
38937;SDS011;24727;51.974;20.868;2023-05-28T09:26:08;3.60;;;0.77;;
38937;SDS011;24727;51.974;20.868;2023-05-28T09:28:35;1.63;;;0.73;;
38937;SDS011;24727;51.974;20.868;2023-05-28T09:31:07;1.58;;;0.70;;
38937;SDS011;24727;51.974;20.868;2023-05-28T09:33:35;2.90;;;0.60;;
38937;SDS011;24727;51.974;20.868;2023-05-28T09:36:16;3.33;;;0.50;;
38937;SDS011;24727;51.974;20.868;2023-05-28T09:38:43;4.97;;;0.63;;
38937;SDS011;24727;51.974;20.868;2023-05-28T09:41:21;2.65;;;0.60;;
38937;SDS011;24727;51.974;20.868;2023-05-28T09:43:59;4.13;;;0.60;;
38937;SDS011;24727;51.974;20.868;2023-05-28T09:46:28;5.72;;;0.68;;
38937;SDS011;24727;51.974;20.868;2023-05-28T09:51:25;2.58;;;0.40;;
38937;SDS011;24727;51.974;20.868;2023-05-28T09:54:01;1.95;;;0.60;;
38937;SDS011;24727;51.974;20.868;2023-05-28T09:56:33;0.95;;;0.60;;
38937;SDS011;24727;51.974;20.868;2023-05-28T09:59:01;4.15;;;0.95;;
38937;SDS011;24727;51.974;20.868;2023-05-28T10:01:33;2.15;;;0.70;;
38937;SDS011;24727;51.974;20.868;2023-05-28T10:04:08;1.58;;;0.63;;
38937;SDS011;24727;51.974;20.868;2023-05-28T10:06:38;2.83;;;0.70;;
38937;SDS011;24727;51.974;20.868;2023-05-28T10:09:12;1.23;;;0.60;;
38937;SDS011;24727;51.974;20.868;2023-05-28T10:11:42;1.08;;;0.77;;
38937;SDS011;24727;51.974;20.868;2023-05-28T10:14:11;2.05;;;1.05;;
38937;SDS011;24727;51.974;20.868;2023-05-28T10:16:37;1.10;;;0.70;;
38937;SDS011;24727;51.974;20.868;2023-05-28T10:19:04;1.05;;;0.65;;
38937;SDS011;24727;51.974;20.868;2023-05-28T10:21:30;1.17;;;0.60;;
38937;SDS011;24727;51.974;20.868;2023-05-28T10:23:57;0.55;;;0.40;;
38937;SDS011;24727;51.974;20.868;2023-05-28T10:26:23;1.42;;;0.80;;
38937;SDS011;24727;51.974;20.868;2023-05-28T10:28:56;4.50;;;0.60;;
38937;SDS011;24727;51.974;20.868;2023-05-28T10:31:22;1.13;;;0.68;;
38937;SDS011;24727;51.974;20.868;2023-05-28T10:33:55;6.30;;;0.73;;
38937;SDS011;24727;51.974;20.868;2023-05-28T10:36:21;2.90;;;0.68;;
38937;SDS011;24727;51.974;20.868;2023-05-28T10:41:22;2.95;;;0.88;;
38937;SDS011;24727;51.974;20.868;2023-05-28T10:43:52;4.18;;;0.60;;
38937;SDS011;24727;51.974;20.868;2023-05-28T10:46:19;2.20;;;0.70;;
38937;SDS011;24727;51.974;20.868;2023-05-28T10:49:08;5.55;;;0.70;;
38937;SDS011;24727;51.974;20.868;2023-05-28T10:54:47;2.75;;;0.73;;
38937;SDS011;24727;51.974;20.868;2023-05-28T10:59:49;0.95;;;0.40;;
38937;SDS011;24727;51.974;20.868;2023-05-28T11:02:23;5.63;;;0.60;;
38937;SDS011;24727;51.974;20.868;2023-05-28T11:04:52;4.80;;;0.70;;
38937;SDS011;24727;51.974;20.868;2023-05-28T11:07:28;1.02;;;0.50;;
38937;SDS011;24727;51.974;20.868;2023-05-28T11:09:59;0.47;;;0.45;;
38937;SDS011;24727;51.974;20.868;2023-05-28T11:12:26;1.73;;;0.80;;
38937;SDS011;24727;51.974;20.868;2023-05-28T11:14:53;3.38;;;0.90;;
38937;SDS011;24727;51.974;20.868;2023-05-28T11:17:20;6.78;;;1.00;;
38937;SDS011;24727;51.974;20.868;2023-05-28T11:19:50;1.20;;;0.55;;
38937;SDS011;24727;51.974;20.868;2023-05-28T11:22:18;3.17;;;0.70;;
38937;SDS011;24727;51.974;20.868;2023-05-28T11:25:27;11.25;;;1.17;;
38937;SDS011;24727;51.974;20.868;2023-05-28T11:27:35;2.85;;;0.70;;
38937;SDS011;24727;51.974;20.868;2023-05-28T11:30:06;1.38;;;0.60;;
38937;SDS011;24727;51.974;20.868;2023-05-28T11:32:34;1.55;;;0.70;;
38937;SDS011;24727;51.974;20.868;2023-05-28T11:35:00;5.07;;;2.55;;
38937;SDS011;24727;51.974;20.868;2023-05-28T11:37:36;8.15;;;0.63;;
38937;SDS011;24727;51.974;20.868;2023-05-28T11:40:04;2.38;;;0.90;;
38937;SDS011;24727;51.974;20.868;2023-05-28T11:42:35;1.98;;;0.70;;
38937;SDS011;24727;51.974;20.868;2023-05-28T11:45:03;1.52;;;0.60;;
38937;SDS011;24727;51.974;20.868;2023-05-28T11:47:34;1.40;;;0.50;;
38937;SDS011;24727;51.974;20.868;2023-05-28T11:50:11;4.72;;;0.70;;
38937;SDS011;24727;51.974;20.868;2023-05-28T11:52:38;3.35;;;0.80;;
38937;SDS011;24727;51.974;20.868;2023-05-28T11:55:06;5.90;;;0.77;;
38937;SDS011;24727;51.974;20.868;2023-05-28T11:57:33;3.42;;;0.55;;
38937;SDS011;24727;51.974;20.868;2023-05-28T12:00:06;3.53;;;0.43;;
38937;SDS011;24727;51.974;20.868;2023-05-28T12:02:51;3.30;;;0.63;;
38937;SDS011;24727;51.974;20.868;2023-05-28T12:05:20;2.97;;;0.80;;
38937;SDS011;24727;51.974;20.868;2023-05-28T12:07:48;4.28;;;1.08;;
38937;SDS011;24727;51.974;20.868;2023-05-28T12:10:16;1.35;;;0.70;;
38937;SDS011;24727;51.974;20.868;2023-05-28T12:12:46;4.63;;;0.65;;
38937;SDS011;24727;51.974;20.868;2023-05-28T12:15:13;5.97;;;1.13;;
38937;SDS011;24727;51.974;20.868;2023-05-28T12:17:41;4.97;;;0.80;;
38937;SDS011;24727;51.974;20.868;2023-05-28T12:22:38;1.77;;;0.55;;
38937;SDS011;24727;51.974;20.868;2023-05-28T12:25:05;2.30;;;0.80;;
38937;SDS011;24727;51.974;20.868;2023-05-28T12:27:32;2.45;;;0.50;;
38937;SDS011;24727;51.974;20.868;2023-05-28T12:29:58;1.65;;;0.82;;
38937;SDS011;24727;51.974;20.868;2023-05-28T12:32:25;1.95;;;0.60;;
38937;SDS011;24727;51.974;20.868;2023-05-28T12:34:51;12.88;;;0.85;;
38937;SDS011;24727;51.974;20.868;2023-05-28T12:37:22;1.85;;;1.25;;
38937;SDS011;24727;51.974;20.868;2023-05-28T12:39:49;3.30;;;0.68;;
38937;SDS011;24727;51.974;20.868;2023-05-28T12:42:16;2.17;;;0.80;;
38937;SDS011;24727;51.974;20.868;2023-05-28T12:44:50;1.63;;;0.80;;
38937;SDS011;24727;51.974;20.868;2023-05-28T12:47:22;3.05;;;0.50;;
38937;SDS011;24727;51.974;20.868;2023-05-28T12:49:48;1.50;;;0.70;;
38937;SDS011;24727;51.974;20.868;2023-05-28T12:52:15;3.60;;;0.60;;
38937;SDS011;24727;51.974;20.868;2023-05-28T12:54:41;0.95;;;0.65;;
38937;SDS011;24727;51.974;20.868;2023-05-28T12:57:07;4.15;;;0.75;;
38937;SDS011;24727;51.974;20.868;2023-05-28T12:59:32;0.95;;;0.77;;
38937;SDS011;24727;51.974;20.868;2023-05-28T13:02:00;6.40;;;1.35;;
38937;SDS011;24727;51.974;20.868;2023-05-28T13:04:26;1.92;;;0.90;;
38937;SDS011;24727;51.974;20.868;2023-05-28T13:06:53;4.10;;;0.63;;
38937;SDS011;24727;51.974;20.868;2023-05-28T13:09:19;1.17;;;0.70;;
38937;SDS011;24727;51.974;20.868;2023-05-28T13:11:45;5.43;;;0.80;;
38937;SDS011;24727;51.974;20.868;2023-05-28T13:14:12;3.42;;;0.65;;
38937;SDS011;24727;51.974;20.868;2023-05-28T13:16:38;0.95;;;0.60;;
38937;SDS011;24727;51.974;20.868;2023-05-28T13:19:04;2.78;;;0.60;;
38937;SDS011;24727;51.974;20.868;2023-05-28T13:21:30;2.10;;;0.77;;
38937;SDS011;24727;51.974;20.868;2023-05-28T13:24:00;2.58;;;0.73;;
38937;SDS011;24727;51.974;20.868;2023-05-28T13:26:27;4.57;;;1.45;;
38937;SDS011;24727;51.974;20.868;2023-05-28T13:28:56;1.23;;;0.90;;
38937;SDS011;24727;51.974;20.868;2023-05-28T13:31:22;4.80;;;0.70;;
38937;SDS011;24727;51.974;20.868;2023-05-28T13:33:49;1.15;;;0.65;;
38937;SDS011;24727;51.974;20.868;2023-05-28T13:36:17;3.10;;;1.25;;
38937;SDS011;24727;51.974;20.868;2023-05-28T13:38:44;3.42;;;0.73;;
38937;SDS011;24727;51.974;20.868;2023-05-28T13:41:13;3.85;;;0.70;;
38937;SDS011;24727;51.974;20.868;2023-05-28T13:43:40;2.80;;;0.70;;
38937;SDS011;24727;51.974;20.868;2023-05-28T13:46:07;3.97;;;0.85;;
38937;SDS011;24727;51.974;20.868;2023-05-28T13:48:33;2.00;;;0.68;;
38937;SDS011;24727;51.974;20.868;2023-05-28T13:51:00;2.08;;;0.98;;
38937;SDS011;24727;51.974;20.868;2023-05-28T13:53:27;3.35;;;0.70;;
38937;SDS011;24727;51.974;20.868;2023-05-28T13:55:56;2.83;;;0.80;;
38937;SDS011;24727;51.974;20.868;2023-05-28T13:58:23;1.60;;;0.70;;
38937;SDS011;24727;51.974;20.868;2023-05-28T14:00:51;7.53;;;0.90;;
38937;SDS011;24727;51.974;20.868;2023-05-28T14:03:17;1.27;;;0.80;;
38937;SDS011;24727;51.974;20.868;2023-05-28T14:05:43;11.07;;;0.80;;
38937;SDS011;24727;51.974;20.868;2023-05-28T14:08:11;3.08;;;0.70;;
38937;SDS011;24727;51.974;20.868;2023-05-28T14:10:37;2.42;;;0.80;;
38937;SDS011;24727;51.974;20.868;2023-05-28T14:13:06;4.78;;;0.80;;
38937;SDS011;24727;51.974;20.868;2023-05-28T14:15:32;1.20;;;0.70;;
38937;SDS011;24727;51.974;20.868;2023-05-28T14:18:01;2.33;;;0.80;;
38937;SDS011;24727;51.974;20.868;2023-05-28T14:20:27;0.90;;;0.70;;
38937;SDS011;24727;51.974;20.868;2023-05-28T14:23:03;7.47;;;0.63;;
38937;SDS011;24727;51.974;20.868;2023-05-28T14:25:30;4.65;;;0.65;;
38937;SDS011;24727;51.974;20.868;2023-05-28T14:27:56;0.85;;;0.57;;
38937;SDS011;24727;51.974;20.868;2023-05-28T14:30:26;2.95;;;0.85;;
38937;SDS011;24727;51.974;20.868;2023-05-28T14:32:54;5.50;;;0.85;;
38937;SDS011;24727;51.974;20.868;2023-05-28T14:35:26;1.95;;;0.73;;
38937;SDS011;24727;51.974;20.868;2023-05-28T14:37:53;5.35;;;1.02;;
38937;SDS011;24727;51.974;20.868;2023-05-28T14:40:20;3.33;;;0.70;;
38937;SDS011;24727;51.974;20.868;2023-05-28T14:42:46;3.35;;;0.95;;
38937;SDS011;24727;51.974;20.868;2023-05-28T14:45:13;3.05;;;0.70;;
38937;SDS011;24727;51.974;20.868;2023-05-28T14:47:39;1.35;;;0.70;;
38937;SDS011;24727;51.974;20.868;2023-05-28T14:50:06;3.65;;;0.90;;
38937;SDS011;24727;51.974;20.868;2023-05-28T14:52:33;1.25;;;0.88;;
38937;SDS011;24727;51.974;20.868;2023-05-28T14:55:01;2.95;;;0.90;;
38937;SDS011;24727;51.974;20.868;2023-05-28T14:57:28;3.78;;;0.73;;
38937;SDS011;24727;51.974;20.868;2023-05-28T15:00:02;3.13;;;0.70;;